sensor_id;sensor_type;location;lat;lon;timestamp;P1;durP1;ratioP1;P2;durP2;ratioP2
27039;SDS011;14589;51.578;7.306;2022-08-02T00:01:51;5.97;;;2.72;;
27039;SDS011;14589;51.578;7.306;2022-08-02T00:04:17;3.40;;;2.58;;
27039;SDS011;14589;51.578;7.306;2022-08-02T00:06:43;3.08;;;2.40;;
27039;SDS011;14589;51.578;7.306;2022-08-02T00:09:08;3.25;;;2.58;;
27039;SDS011;14589;51.578;7.306;2022-08-02T00:11:34;6.20;;;2.45;;
27039;SDS011;14589;51.578;7.306;2022-08-02T00:13:59;3.58;;;2.58;;
27039;SDS011;14589;51.578;7.306;2022-08-02T00:16:25;3.90;;;2.72;;
27039;SDS011;14589;51.578;7.306;2022-08-02T00:18:50;2.92;;;2.35;;
27039;SDS011;14589;51.578;7.306;2022-08-02T00:21:16;4.47;;;2.25;;
27039;SDS011;14589;51.578;7.306;2022-08-02T00:23:41;2.92;;;2.58;;
27039;SDS011;14589;51.578;7.306;2022-08-02T00:26:07;3.35;;;2.47;;
27039;SDS011;14589;51.578;7.306;2022-08-02T00:28:32;4.05;;;2.28;;
27039;SDS011;14589;51.578;7.306;2022-08-02T00:30:58;3.13;;;2.20;;
27039;SDS011;14589;51.578;7.306;2022-08-02T00:33:23;4.60;;;3.00;;
27039;SDS011;14589;51.578;7.306;2022-08-02T00:35:49;8.95;;;2.90;;
27039;SDS011;14589;51.578;7.306;2022-08-02T00:38:14;2.97;;;2.60;;
27039;SDS011;14589;51.578;7.306;2022-08-02T00:40:40;5.18;;;2.60;;
27039;SDS011;14589;51.578;7.306;2022-08-02T00:43:11;5.22;;;2.58;;
27039;SDS011;14589;51.578;7.306;2022-08-02T00:45:37;3.63;;;2.50;;
27039;SDS011;14589;51.578;7.306;2022-08-02T00:48:03;5.15;;;2.80;;
27039;SDS011;14589;51.578;7.306;2022-08-02T00:50:30;2.70;;;2.38;;
27039;SDS011;14589;51.578;7.306;2022-08-02T00:52:55;2.97;;;2.30;;
27039;SDS011;14589;51.578;7.306;2022-08-02T00:55:21;2.85;;;2.28;;
27039;SDS011;14589;51.578;7.306;2022-08-02T00:57:46;3.08;;;2.08;;
27039;SDS011;14589;51.578;7.306;2022-08-02T01:00:12;3.40;;;2.55;;
27039;SDS011;14589;51.578;7.306;2022-08-02T01:02:38;3.22;;;2.22;;
27039;SDS011;14589;51.578;7.306;2022-08-02T01:05:04;3.33;;;2.42;;
27039;SDS011;14589;51.578;7.306;2022-08-02T01:07:30;7.78;;;2.72;;
27039;SDS011;14589;51.578;7.306;2022-08-02T01:09:55;3.55;;;2.70;;
27039;SDS011;14589;51.578;7.306;2022-08-02T01:12:20;4.18;;;2.70;;
27039;SDS011;14589;51.578;7.306;2022-08-02T01:14:47;6.07;;;3.10;;
27039;SDS011;14589;51.578;7.306;2022-08-02T01:17:15;6.03;;;3.10;;
27039;SDS011;14589;51.578;7.306;2022-08-02T01:22:53;4.95;;;2.90;;
27039;SDS011;14589;51.578;7.306;2022-08-02T01:33:56;2.88;;;2.58;;
27039;SDS011;14589;51.578;7.306;2022-08-02T01:37:12;2.95;;;2.08;;
27039;SDS011;14589;51.578;7.306;2022-08-02T01:39:35;6.43;;;2.80;;
27039;SDS011;14589;51.578;7.306;2022-08-02T01:42:02;4.50;;;2.95;;
27039;SDS011;14589;51.578;7.306;2022-08-02T01:44:29;2.58;;;2.38;;
27039;SDS011;14589;51.578;7.306;2022-08-02T01:47:00;3.35;;;2.42;;
27039;SDS011;14589;51.578;7.306;2022-08-02T01:49:29;3.90;;;2.70;;
27039;SDS011;14589;51.578;7.306;2022-08-02T01:51:55;4.97;;;2.63;;
27039;SDS011;14589;51.578;7.306;2022-08-02T01:54:41;10.38;;;3.67;;
27039;SDS011;14589;51.578;7.306;2022-08-02T01:57:08;7.63;;;2.85;;
27039;SDS011;14589;51.578;7.306;2022-08-02T01:59:34;2.92;;;2.28;;
27039;SDS011;14589;51.578;7.306;2022-08-02T02:02:00;4.75;;;2.13;;
27039;SDS011;14589;51.578;7.306;2022-08-02T02:04:27;2.60;;;2.40;;
27039;SDS011;14589;51.578;7.306;2022-08-02T02:06:53;4.03;;;2.22;;
27039;SDS011;14589;51.578;7.306;2022-08-02T02:09:20;3.03;;;2.38;;
27039;SDS011;14589;51.578;7.306;2022-08-02T02:11:46;3.47;;;2.20;;
27039;SDS011;14589;51.578;7.306;2022-08-02T02:14:12;2.67;;;2.28;;
27039;SDS011;14589;51.578;7.306;2022-08-02T02:16:40;3.90;;;2.65;;
27039;SDS011;14589;51.578;7.306;2022-08-02T02:19:06;4.72;;;3.10;;
27039;SDS011;14589;51.578;7.306;2022-08-02T02:21:33;3.42;;;2.63;;
27039;SDS011;14589;51.578;7.306;2022-08-02T02:23:58;4.30;;;2.42;;
27039;SDS011;14589;51.578;7.306;2022-08-02T02:26:24;5.22;;;2.80;;
27039;SDS011;14589;51.578;7.306;2022-08-02T02:28:49;3.15;;;2.67;;
27039;SDS011;14589;51.578;7.306;2022-08-02T02:31:16;4.60;;;2.40;;
27039;SDS011;14589;51.578;7.306;2022-08-02T02:33:49;3.60;;;2.28;;
27039;SDS011;14589;51.578;7.306;2022-08-02T02:36:17;4.57;;;2.83;;
27039;SDS011;14589;51.578;7.306;2022-08-02T02:38:43;3.75;;;2.60;;
27039;SDS011;14589;51.578;7.306;2022-08-02T02:41:09;2.47;;;2.28;;
27039;SDS011;14589;51.578;7.306;2022-08-02T02:43:35;3.70;;;2.58;;
27039;SDS011;14589;51.578;7.306;2022-08-02T02:46:02;5.05;;;2.53;;
27039;SDS011;14589;51.578;7.306;2022-08-02T02:48:29;4.50;;;2.63;;
27039;SDS011;14589;51.578;7.306;2022-08-02T02:50:55;4.95;;;3.00;;
27039;SDS011;14589;51.578;7.306;2022-08-02T02:53:21;3.90;;;3.20;;
27039;SDS011;14589;51.578;7.306;2022-08-02T02:55:48;3.83;;;2.40;;
27039;SDS011;14589;51.578;7.306;2022-08-02T02:58:13;5.13;;;2.80;;
27039;SDS011;14589;51.578;7.306;2022-08-02T03:00:39;4.00;;;2.47;;
27039;SDS011;14589;51.578;7.306;2022-08-02T03:05:49;5.65;;;2.90;;
27039;SDS011;14589;51.578;7.306;2022-08-02T03:08:15;3.50;;;2.85;;
27039;SDS011;14589;51.578;7.306;2022-08-02T03:10:41;2.80;;;2.53;;
27039;SDS011;14589;51.578;7.306;2022-08-02T03:13:08;3.47;;;2.67;;
27039;SDS011;14589;51.578;7.306;2022-08-02T03:15:33;3.13;;;2.60;;
27039;SDS011;14589;51.578;7.306;2022-08-02T03:18:00;5.00;;;2.85;;
27039;SDS011;14589;51.578;7.306;2022-08-02T03:20:26;6.60;;;3.10;;
27039;SDS011;14589;51.578;7.306;2022-08-02T03:22:51;3.17;;;2.58;;
27039;SDS011;14589;51.578;7.306;2022-08-02T03:25:17;3.05;;;2.35;;
27039;SDS011;14589;51.578;7.306;2022-08-02T03:27:42;4.43;;;2.75;;
27039;SDS011;14589;51.578;7.306;2022-08-02T03:30:09;4.18;;;2.75;;
27039;SDS011;14589;51.578;7.306;2022-08-02T03:32:36;3.45;;;2.80;;
27039;SDS011;14589;51.578;7.306;2022-08-02T03:35:03;5.53;;;3.20;;
27039;SDS011;14589;51.578;7.306;2022-08-02T03:37:29;5.53;;;3.10;;
27039;SDS011;14589;51.578;7.306;2022-08-02T03:39:56;5.70;;;3.25;;
27039;SDS011;14589;51.578;7.306;2022-08-02T03:42:22;4.75;;;3.05;;
27039;SDS011;14589;51.578;7.306;2022-08-02T03:44:49;5.70;;;3.10;;
27039;SDS011;14589;51.578;7.306;2022-08-02T03:47:16;3.05;;;2.60;;
27039;SDS011;14589;51.578;7.306;2022-08-02T03:49:42;4.22;;;3.03;;
27039;SDS011;14589;51.578;7.306;2022-08-02T03:52:08;2.90;;;2.60;;
27039;SDS011;14589;51.578;7.306;2022-08-02T03:54:34;4.88;;;3.03;;
27039;SDS011;14589;51.578;7.306;2022-08-02T03:56:59;5.70;;;2.63;;
27039;SDS011;14589;51.578;7.306;2022-08-02T03:59:25;3.13;;;2.80;;
27039;SDS011;14589;51.578;7.306;2022-08-02T04:01:50;4.22;;;2.65;;
27039;SDS011;14589;51.578;7.306;2022-08-02T04:04:15;4.15;;;3.08;;
27039;SDS011;14589;51.578;7.306;2022-08-02T04:06:41;4.05;;;2.60;;
27039;SDS011;14589;51.578;7.306;2022-08-02T04:09:06;3.45;;;2.88;;
27039;SDS011;14589;51.578;7.306;2022-08-02T04:11:31;2.40;;;2.10;;
27039;SDS011;14589;51.578;7.306;2022-08-02T04:13:57;3.58;;;2.83;;
27039;SDS011;14589;51.578;7.306;2022-08-02T04:16:33;3.22;;;2.92;;
27039;SDS011;14589;51.578;7.306;2022-08-02T04:19:04;4.55;;;3.22;;
27039;SDS011;14589;51.578;7.306;2022-08-02T04:21:34;6.75;;;3.50;;
27039;SDS011;14589;51.578;7.306;2022-08-02T04:24:03;5.40;;;3.60;;
27039;SDS011;14589;51.578;7.306;2022-08-02T04:26:30;5.93;;;3.63;;
27039;SDS011;14589;51.578;7.306;2022-08-02T04:28:56;5.32;;;3.33;;
27039;SDS011;14589;51.578;7.306;2022-08-02T04:31:23;4.90;;;2.95;;
27039;SDS011;14589;51.578;7.306;2022-08-02T04:33:49;3.50;;;2.90;;
27039;SDS011;14589;51.578;7.306;2022-08-02T04:36:14;6.63;;;3.30;;
27039;SDS011;14589;51.578;7.306;2022-08-02T04:38:41;6.25;;;3.05;;
27039;SDS011;14589;51.578;7.306;2022-08-02T04:41:06;7.18;;;3.58;;
27039;SDS011;14589;51.578;7.306;2022-08-02T04:43:32;5.22;;;3.10;;
27039;SDS011;14589;51.578;7.306;2022-08-02T04:45:57;6.95;;;2.88;;
27039;SDS011;14589;51.578;7.306;2022-08-02T04:48:23;3.25;;;2.72;;
27039;SDS011;14589;51.578;7.306;2022-08-02T04:50:48;4.18;;;3.00;;
27039;SDS011;14589;51.578;7.306;2022-08-02T04:53:14;4.28;;;2.92;;
27039;SDS011;14589;51.578;7.306;2022-08-02T04:55:41;3.53;;;2.70;;
27039;SDS011;14589;51.578;7.306;2022-08-02T04:58:06;4.25;;;3.08;;
27039;SDS011;14589;51.578;7.306;2022-08-02T05:00:31;4.22;;;2.30;;
27039;SDS011;14589;51.578;7.306;2022-08-02T05:02:57;3.53;;;2.72;;
27039;SDS011;14589;51.578;7.306;2022-08-02T05:05:24;3.78;;;2.65;;
27039;SDS011;14589;51.578;7.306;2022-08-02T05:07:49;5.88;;;2.72;;
27039;SDS011;14589;51.578;7.306;2022-08-02T05:10:15;7.05;;;2.50;;
27039;SDS011;14589;51.578;7.306;2022-08-02T05:12:40;3.38;;;2.75;;
27039;SDS011;14589;51.578;7.306;2022-08-02T05:15:07;7.75;;;3.05;;
27039;SDS011;14589;51.578;7.306;2022-08-02T05:17:33;4.80;;;2.67;;
27039;SDS011;14589;51.578;7.306;2022-08-02T05:19:58;6.18;;;3.00;;
27039;SDS011;14589;51.578;7.306;2022-08-02T05:22:24;5.32;;;3.30;;
27039;SDS011;14589;51.578;7.306;2022-08-02T05:24:49;8.57;;;3.22;;
27039;SDS011;14589;51.578;7.306;2022-08-02T05:27:14;4.70;;;3.05;;
27039;SDS011;14589;51.578;7.306;2022-08-02T05:29:40;5.70;;;3.60;;
27039;SDS011;14589;51.578;7.306;2022-08-02T05:32:05;10.60;;;3.83;;
27039;SDS011;14589;51.578;7.306;2022-08-02T05:34:31;7.18;;;3.08;;
27039;SDS011;14589;51.578;7.306;2022-08-02T05:36:56;8.10;;;3.50;;
27039;SDS011;14589;51.578;7.306;2022-08-02T05:39:22;6.68;;;3.67;;
27039;SDS011;14589;51.578;7.306;2022-08-02T05:41:47;5.75;;;4.07;;
27039;SDS011;14589;51.578;7.306;2022-08-02T05:44:13;9.00;;;3.67;;
27039;SDS011;14589;51.578;7.306;2022-08-02T05:46:38;3.38;;;2.70;;
27039;SDS011;14589;51.578;7.306;2022-08-02T05:49:04;4.47;;;2.90;;
27039;SDS011;14589;51.578;7.306;2022-08-02T05:51:34;3.70;;;3.20;;
27039;SDS011;14589;51.578;7.306;2022-08-02T05:56:33;8.52;;;3.35;;
27039;SDS011;14589;51.578;7.306;2022-08-02T06:02:58;5.55;;;2.75;;
27039;SDS011;14589;51.578;7.306;2022-08-02T06:05:09;4.55;;;2.70;;
27039;SDS011;14589;51.578;7.306;2022-08-02T06:07:43;4.35;;;2.85;;
27039;SDS011;14589;51.578;7.306;2022-08-02T06:10:09;4.72;;;2.60;;
27039;SDS011;14589;51.578;7.306;2022-08-02T06:15:17;2.47;;;2.28;;
27039;SDS011;14589;51.578;7.306;2022-08-02T06:17:43;3.75;;;2.42;;
27039;SDS011;14589;51.578;7.306;2022-08-02T06:20:11;2.88;;;2.60;;
27039;SDS011;14589;51.578;7.306;2022-08-02T06:22:41;5.43;;;2.97;;
27039;SDS011;14589;51.578;7.306;2022-08-02T06:25:08;4.15;;;3.33;;
27039;SDS011;14589;51.578;7.306;2022-08-02T06:27:37;10.35;;;5.55;;
27039;SDS011;14589;51.578;7.306;2022-08-02T06:30:03;9.68;;;4.32;;
27039;SDS011;14589;51.578;7.306;2022-08-02T06:32:31;4.97;;;3.90;;
27039;SDS011;14589;51.578;7.306;2022-08-02T06:34:57;4.55;;;3.22;;
27039;SDS011;14589;51.578;7.306;2022-08-02T06:40:05;4.85;;;3.55;;
27039;SDS011;14589;51.578;7.306;2022-08-02T06:43:11;12.13;;;4.75;;
27039;SDS011;14589;51.578;7.306;2022-08-02T06:45:37;6.65;;;4.35;;
27039;SDS011;14589;51.578;7.306;2022-08-02T06:48:04;6.65;;;3.78;;
27039;SDS011;14589;51.578;7.306;2022-08-02T06:50:30;5.97;;;3.28;;
27039;SDS011;14589;51.578;7.306;2022-08-02T06:52:55;4.90;;;3.22;;
27039;SDS011;14589;51.578;7.306;2022-08-02T06:55:21;5.78;;;3.42;;
27039;SDS011;14589;51.578;7.306;2022-08-02T06:57:46;6.20;;;3.45;;
27039;SDS011;14589;51.578;7.306;2022-08-02T07:00:12;7.68;;;3.92;;
27039;SDS011;14589;51.578;7.306;2022-08-02T07:02:38;9.23;;;4.03;;
27039;SDS011;14589;51.578;7.306;2022-08-02T07:05:04;6.78;;;3.60;;
27039;SDS011;14589;51.578;7.306;2022-08-02T07:07:30;11.48;;;3.55;;
27039;SDS011;14589;51.578;7.306;2022-08-02T07:09:56;12.02;;;4.53;;
27039;SDS011;14589;51.578;7.306;2022-08-02T07:12:22;9.23;;;3.75;;
27039;SDS011;14589;51.578;7.306;2022-08-02T07:14:48;4.70;;;3.35;;
27039;SDS011;14589;51.578;7.306;2022-08-02T07:17:13;8.43;;;4.22;;
27039;SDS011;14589;51.578;7.306;2022-08-02T07:19:38;8.65;;;4.00;;
27039;SDS011;14589;51.578;7.306;2022-08-02T07:22:04;14.00;;;3.50;;
27039;SDS011;14589;51.578;7.306;2022-08-02T07:24:29;9.25;;;4.00;;
27039;SDS011;14589;51.578;7.306;2022-08-02T07:26:55;8.13;;;3.85;;
27039;SDS011;14589;51.578;7.306;2022-08-02T07:29:21;10.45;;;3.88;;
27039;SDS011;14589;51.578;7.306;2022-08-02T07:31:47;9.73;;;3.88;;
27039;SDS011;14589;51.578;7.306;2022-08-02T07:34:12;7.28;;;3.50;;
27039;SDS011;14589;51.578;7.306;2022-08-02T07:36:37;13.82;;;4.03;;
27039;SDS011;14589;51.578;7.306;2022-08-02T07:39:03;10.27;;;3.45;;
27039;SDS011;14589;51.578;7.306;2022-08-02T07:41:28;6.50;;;3.45;;
27039;SDS011;14589;51.578;7.306;2022-08-02T07:43:54;12.25;;;3.25;;
27039;SDS011;14589;51.578;7.306;2022-08-02T07:46:19;8.60;;;3.00;;
27039;SDS011;14589;51.578;7.306;2022-08-02T07:48:45;7.13;;;3.00;;
27039;SDS011;14589;51.578;7.306;2022-08-02T07:51:11;10.20;;;3.15;;
27039;SDS011;14589;51.578;7.306;2022-08-02T07:53:37;6.70;;;2.80;;
27039;SDS011;14589;51.578;7.306;2022-08-02T07:56:02;3.95;;;2.50;;
27039;SDS011;14589;51.578;7.306;2022-08-02T07:58:28;3.35;;;2.22;;
27039;SDS011;14589;51.578;7.306;2022-08-02T08:00:53;3.88;;;2.00;;
27039;SDS011;14589;51.578;7.306;2022-08-02T08:03:19;8.88;;;2.70;;
27039;SDS011;14589;51.578;7.306;2022-08-02T08:05:44;5.43;;;2.70;;
27039;SDS011;14589;51.578;7.306;2022-08-02T08:08:09;2.78;;;1.73;;
27039;SDS011;14589;51.578;7.306;2022-08-02T08:10:35;5.68;;;2.58;;
27039;SDS011;14589;51.578;7.306;2022-08-02T08:13:00;7.38;;;2.10;;
27039;SDS011;14589;51.578;7.306;2022-08-02T08:15:26;3.58;;;2.00;;
27039;SDS011;14589;51.578;7.306;2022-08-02T08:17:51;5.85;;;1.70;;
27039;SDS011;14589;51.578;7.306;2022-08-02T08:20:16;5.57;;;1.75;;
27039;SDS011;14589;51.578;7.306;2022-08-02T08:22:42;8.15;;;2.00;;
27039;SDS011;14589;51.578;7.306;2022-08-02T08:25:08;3.30;;;1.60;;
27039;SDS011;14589;51.578;7.306;2022-08-02T08:27:33;4.00;;;1.52;;
27039;SDS011;14589;51.578;7.306;2022-08-02T08:29:59;4.00;;;1.75;;
27039;SDS011;14589;51.578;7.306;2022-08-02T08:32:24;3.33;;;1.52;;
27039;SDS011;14589;51.578;7.306;2022-08-02T08:34:51;5.63;;;1.92;;
27039;SDS011;14589;51.578;7.306;2022-08-02T08:37:17;2.80;;;1.50;;
27039;SDS011;14589;51.578;7.306;2022-08-02T08:39:42;1.42;;;1.33;;
27039;SDS011;14589;51.578;7.306;2022-08-02T08:42:08;4.05;;;1.38;;
27039;SDS011;14589;51.578;7.306;2022-08-02T08:44:34;2.85;;;1.40;;
27039;SDS011;14589;51.578;7.306;2022-08-02T08:46:59;5.18;;;1.60;;
27039;SDS011;14589;51.578;7.306;2022-08-02T08:49:27;2.45;;;1.45;;
27039;SDS011;14589;51.578;7.306;2022-08-02T08:51:59;2.08;;;1.40;;
27039;SDS011;14589;51.578;7.306;2022-08-02T08:54:27;2.20;;;1.38;;
27039;SDS011;14589;51.578;7.306;2022-08-02T08:56:54;2.03;;;1.40;;
27039;SDS011;14589;51.578;7.306;2022-08-02T08:59:20;3.97;;;1.90;;
27039;SDS011;14589;51.578;7.306;2022-08-02T09:01:46;3.10;;;1.80;;
27039;SDS011;14589;51.578;7.306;2022-08-02T09:04:12;3.65;;;1.80;;
27039;SDS011;14589;51.578;7.306;2022-08-02T09:06:38;4.75;;;1.80;;
27039;SDS011;14589;51.578;7.306;2022-08-02T09:09:04;3.67;;;1.52;;
27039;SDS011;14589;51.578;7.306;2022-08-02T09:11:29;3.60;;;1.52;;
27039;SDS011;14589;51.578;7.306;2022-08-02T09:13:56;2.03;;;1.40;;
27039;SDS011;14589;51.578;7.306;2022-08-02T09:16:32;2.25;;;1.70;;
27039;SDS011;14589;51.578;7.306;2022-08-02T09:19:00;3.58;;;1.52;;
27039;SDS011;14589;51.578;7.306;2022-08-02T09:22:02;2.65;;;1.50;;
27039;SDS011;14589;51.578;7.306;2022-08-02T09:24:45;2.45;;;1.20;;
27039;SDS011;14589;51.578;7.306;2022-08-02T09:27:16;2.35;;;1.60;;
27039;SDS011;14589;51.578;7.306;2022-08-02T09:29:49;1.73;;;1.30;;
27039;SDS011;14589;51.578;7.306;2022-08-02T09:32:17;3.28;;;1.50;;
27039;SDS011;14589;51.578;7.306;2022-08-02T09:37:22;2.85;;;1.67;;
27039;SDS011;14589;51.578;7.306;2022-08-02T09:39:48;3.75;;;1.50;;
27039;SDS011;14589;51.578;7.306;2022-08-02T09:42:14;3.72;;;1.40;;
27039;SDS011;14589;51.578;7.306;2022-08-02T09:44:51;3.03;;;2.00;;
27039;SDS011;14589;51.578;7.306;2022-08-02T09:47:17;1.90;;;1.80;;
27039;SDS011;14589;51.578;7.306;2022-08-02T09:49:46;4.18;;;1.80;;
27039;SDS011;14589;51.578;7.306;2022-08-02T09:52:12;3.00;;;1.88;;
27039;SDS011;14589;51.578;7.306;2022-08-02T09:54:38;3.17;;;1.67;;
27039;SDS011;14589;51.578;7.306;2022-08-02T09:57:04;4.30;;;1.90;;
27039;SDS011;14589;51.578;7.306;2022-08-02T09:59:29;2.75;;;2.00;;
27039;SDS011;14589;51.578;7.306;2022-08-02T10:01:56;1.98;;;1.63;;
27039;SDS011;14589;51.578;7.306;2022-08-02T10:04:23;3.88;;;2.00;;
27039;SDS011;14589;51.578;7.306;2022-08-02T10:06:50;2.72;;;1.70;;
27039;SDS011;14589;51.578;7.306;2022-08-02T10:09:17;2.75;;;2.10;;
27039;SDS011;14589;51.578;7.306;2022-08-02T10:11:43;2.78;;;2.08;;
27039;SDS011;14589;51.578;7.306;2022-08-02T10:14:09;2.97;;;1.90;;
27039;SDS011;14589;51.578;7.306;2022-08-02T10:16:36;6.50;;;2.30;;
27039;SDS011;14589;51.578;7.306;2022-08-02T10:19:03;5.40;;;2.00;;
27039;SDS011;14589;51.578;7.306;2022-08-02T10:24:12;2.17;;;1.88;;
27039;SDS011;14589;51.578;7.306;2022-08-02T10:26:45;3.20;;;1.48;;
27039;SDS011;14589;51.578;7.306;2022-08-02T10:29:15;4.93;;;2.05;;
27039;SDS011;14589;51.578;7.306;2022-08-02T10:32:00;2.08;;;1.88;;
27039;SDS011;14589;51.578;7.306;2022-08-02T10:34:35;4.03;;;2.20;;
27039;SDS011;14589;51.578;7.306;2022-08-02T10:37:07;2.00;;;1.80;;
27039;SDS011;14589;51.578;7.306;2022-08-02T10:42:06;2.95;;;1.60;;
27039;SDS011;14589;51.578;7.306;2022-08-02T10:44:32;2.85;;;2.30;;
27039;SDS011;14589;51.578;7.306;2022-08-02T10:52:29;2.97;;;1.98;;
27039;SDS011;14589;51.578;7.306;2022-08-02T10:54:56;2.67;;;2.10;;
27039;SDS011;14589;51.578;7.306;2022-08-02T10:57:23;4.32;;;1.85;;
27039;SDS011;14589;51.578;7.306;2022-08-02T10:59:54;3.40;;;2.08;;
27039;SDS011;14589;51.578;7.306;2022-08-02T11:07:31;4.97;;;2.47;;
27039;SDS011;14589;51.578;7.306;2022-08-02T11:09:59;5.28;;;2.10;;
27039;SDS011;14589;51.578;7.306;2022-08-02T11:15:29;1.85;;;1.60;;
27039;SDS011;14589;51.578;7.306;2022-08-02T11:17:57;2.75;;;2.00;;
27039;SDS011;14589;51.578;7.306;2022-08-02T11:20:24;3.65;;;1.95;;
27039;SDS011;14589;51.578;7.306;2022-08-02T11:22:51;2.08;;;1.80;;
27039;SDS011;14589;51.578;7.306;2022-08-02T11:27:46;3.08;;;1.98;;
27039;SDS011;14589;51.578;7.306;2022-08-02T11:30:12;2.75;;;2.22;;
27039;SDS011;14589;51.578;7.306;2022-08-02T11:32:38;2.40;;;2.10;;
27039;SDS011;14589;51.578;7.306;2022-08-02T11:35:03;5.15;;;2.35;;
27039;SDS011;14589;51.578;7.306;2022-08-02T11:37:30;4.20;;;2.10;;
27039;SDS011;14589;51.578;7.306;2022-08-02T11:39:56;3.03;;;2.40;;
27039;SDS011;14589;51.578;7.306;2022-08-02T11:42:29;4.82;;;2.55;;
27039;SDS011;14589;51.578;7.306;2022-08-02T11:44:56;3.63;;;2.78;;
27039;SDS011;14589;51.578;7.306;2022-08-02T11:47:21;3.53;;;2.20;;
27039;SDS011;14589;51.578;7.306;2022-08-02T11:49:47;6.60;;;2.70;;
27039;SDS011;14589;51.578;7.306;2022-08-02T11:52:12;3.00;;;2.28;;
27039;SDS011;14589;51.578;7.306;2022-08-02T11:54:41;6.20;;;2.78;;
27039;SDS011;14589;51.578;7.306;2022-08-02T11:59:43;2.22;;;2.03;;
27039;SDS011;14589;51.578;7.306;2022-08-02T12:02:10;3.42;;;1.92;;
27039;SDS011;14589;51.578;7.306;2022-08-02T12:04:36;4.78;;;2.03;;
27039;SDS011;14589;51.578;7.306;2022-08-02T12:07:02;3.55;;;1.92;;
27039;SDS011;14589;51.578;7.306;2022-08-02T12:09:29;6.93;;;2.22;;
27039;SDS011;14589;51.578;7.306;2022-08-02T12:11:55;3.90;;;2.08;;
27039;SDS011;14589;51.578;7.306;2022-08-02T12:14:21;8.32;;;2.50;;
27039;SDS011;14589;51.578;7.306;2022-08-02T12:16:47;4.88;;;2.10;;
27039;SDS011;14589;51.578;7.306;2022-08-02T12:19:32;4.75;;;2.28;;
27039;SDS011;14589;51.578;7.306;2022-08-02T12:22:08;2.83;;;2.00;;
27039;SDS011;14589;51.578;7.306;2022-08-02T12:24:34;3.72;;;1.95;;
27039;SDS011;14589;51.578;7.306;2022-08-02T12:27:00;6.10;;;2.00;;
27039;SDS011;14589;51.578;7.306;2022-08-02T12:29:32;4.30;;;1.90;;
27039;SDS011;14589;51.578;7.306;2022-08-02T12:32:03;2.22;;;2.03;;
27039;SDS011;14589;51.578;7.306;2022-08-02T12:34:31;2.17;;;1.88;;
27039;SDS011;14589;51.578;7.306;2022-08-02T12:37:07;5.03;;;1.95;;
27039;SDS011;14589;51.578;7.306;2022-08-02T12:42:03;5.30;;;2.08;;
27039;SDS011;14589;51.578;7.306;2022-08-02T12:44:30;8.52;;;1.90;;
27039;SDS011;14589;51.578;7.306;2022-08-02T12:47:00;4.15;;;1.98;;
27039;SDS011;14589;51.578;7.306;2022-08-02T12:49:26;3.45;;;1.70;;
27039;SDS011;14589;51.578;7.306;2022-08-02T12:51:52;3.70;;;1.70;;
27039;SDS011;14589;51.578;7.306;2022-08-02T12:54:19;2.90;;;1.80;;
27039;SDS011;14589;51.578;7.306;2022-08-02T12:56:46;4.85;;;1.80;;
27039;SDS011;14589;51.578;7.306;2022-08-02T12:59:13;4.25;;;1.80;;
27039;SDS011;14589;51.578;7.306;2022-08-02T13:01:39;2.05;;;1.85;;
27039;SDS011;14589;51.578;7.306;2022-08-02T13:04:04;1.88;;;1.70;;
27039;SDS011;14589;51.578;7.306;2022-08-02T13:06:30;1.80;;;1.60;;
27039;SDS011;14589;51.578;7.306;2022-08-02T13:08:56;6.15;;;1.95;;
27039;SDS011;14589;51.578;7.306;2022-08-02T13:11:23;3.58;;;1.75;;
27039;SDS011;14589;51.578;7.306;2022-08-02T13:13:48;3.15;;;1.92;;
27039;SDS011;14589;51.578;7.306;2022-08-02T13:16:14;1.80;;;1.70;;
27039;SDS011;14589;51.578;7.306;2022-08-02T13:18:40;2.20;;;1.55;;
27039;SDS011;14589;51.578;7.306;2022-08-02T13:21:05;3.20;;;1.88;;
27039;SDS011;14589;51.578;7.306;2022-08-02T13:23:32;3.42;;;1.70;;
27039;SDS011;14589;51.578;7.306;2022-08-02T13:25:58;5.28;;;1.80;;
27039;SDS011;14589;51.578;7.306;2022-08-02T13:28:24;2.53;;;1.70;;
27039;SDS011;14589;51.578;7.306;2022-08-02T13:30:50;2.15;;;1.52;;
27039;SDS011;14589;51.578;7.306;2022-08-02T13:33:16;1.90;;;1.70;;
27039;SDS011;14589;51.578;7.306;2022-08-02T13:35:42;5.60;;;1.55;;
27039;SDS011;14589;51.578;7.306;2022-08-02T13:38:08;1.60;;;1.50;;
27039;SDS011;14589;51.578;7.306;2022-08-02T13:40:33;4.43;;;1.60;;
27039;SDS011;14589;51.578;7.306;2022-08-02T13:42:59;1.85;;;1.70;;
27039;SDS011;14589;51.578;7.306;2022-08-02T13:45:25;6.93;;;1.58;;
27039;SDS011;14589;51.578;7.306;2022-08-02T13:47:50;3.70;;;1.60;;
27039;SDS011;14589;51.578;7.306;2022-08-02T13:50:16;1.88;;;1.70;;
27039;SDS011;14589;51.578;7.306;2022-08-02T13:52:41;2.17;;;1.65;;
27039;SDS011;14589;51.578;7.306;2022-08-02T13:55:07;4.75;;;1.88;;
27039;SDS011;14589;51.578;7.306;2022-08-02T13:57:33;2.08;;;1.60;;
27039;SDS011;14589;51.578;7.306;2022-08-02T13:59:58;1.77;;;1.67;;
27039;SDS011;14589;51.578;7.306;2022-08-02T14:02:25;5.28;;;1.70;;
27039;SDS011;14589;51.578;7.306;2022-08-02T14:04:52;2.00;;;1.55;;
27039;SDS011;14589;51.578;7.306;2022-08-02T14:07:17;2.85;;;1.70;;
27039;SDS011;14589;51.578;7.306;2022-08-02T14:09:43;2.03;;;1.83;;
27039;SDS011;14589;51.578;7.306;2022-08-02T14:12:08;7.95;;;1.55;;
27039;SDS011;14589;51.578;7.306;2022-08-02T14:14:34;2.50;;;1.77;;
27039;SDS011;14589;51.578;7.306;2022-08-02T14:17:00;1.80;;;1.60;;
27039;SDS011;14589;51.578;7.306;2022-08-02T14:19:26;1.65;;;1.52;;
27039;SDS011;14589;51.578;7.306;2022-08-02T14:21:51;2.58;;;1.60;;
27039;SDS011;14589;51.578;7.306;2022-08-02T14:24:17;2.60;;;1.80;;
27039;SDS011;14589;51.578;7.306;2022-08-02T14:26:44;1.80;;;1.70;;
27039;SDS011;14589;51.578;7.306;2022-08-02T14:29:10;2.85;;;2.05;;
27039;SDS011;14589;51.578;7.306;2022-08-02T14:31:36;2.42;;;1.60;;
27039;SDS011;14589;51.578;7.306;2022-08-02T14:34:01;1.70;;;1.60;;
27039;SDS011;14589;51.578;7.306;2022-08-02T14:36:27;2.60;;;1.70;;
27039;SDS011;14589;51.578;7.306;2022-08-02T14:38:52;2.58;;;1.88;;
27039;SDS011;14589;51.578;7.306;2022-08-02T14:41:18;2.20;;;1.70;;
27039;SDS011;14589;51.578;7.306;2022-08-02T14:43:43;6.45;;;1.98;;
27039;SDS011;14589;51.578;7.306;2022-08-02T14:48:52;6.70;;;2.00;;
27039;SDS011;14589;51.578;7.306;2022-08-02T14:51:18;4.97;;;1.85;;
27039;SDS011;14589;51.578;7.306;2022-08-02T14:53:44;3.47;;;1.67;;
27039;SDS011;14589;51.578;7.306;2022-08-02T14:56:09;3.00;;;1.50;;
27039;SDS011;14589;51.578;7.306;2022-08-02T14:58:34;5.60;;;2.08;;
27039;SDS011;14589;51.578;7.306;2022-08-02T15:01:00;3.30;;;1.90;;
27039;SDS011;14589;51.578;7.306;2022-08-02T15:03:25;2.13;;;1.70;;
27039;SDS011;14589;51.578;7.306;2022-08-02T15:05:51;4.60;;;1.52;;
27039;SDS011;14589;51.578;7.306;2022-08-02T15:08:16;5.35;;;1.90;;
27039;SDS011;14589;51.578;7.306;2022-08-02T15:10:41;2.55;;;1.98;;
27039;SDS011;14589;51.578;7.306;2022-08-02T15:13:08;2.17;;;1.98;;
27039;SDS011;14589;51.578;7.306;2022-08-02T15:15:33;2.58;;;2.03;;
27039;SDS011;14589;51.578;7.306;2022-08-02T15:17:59;2.72;;;1.90;;
27039;SDS011;14589;51.578;7.306;2022-08-02T15:20:24;3.05;;;2.00;;
27039;SDS011;14589;51.578;7.306;2022-08-02T15:22:50;4.63;;;1.90;;
27039;SDS011;14589;51.578;7.306;2022-08-02T15:25:15;6.30;;;2.17;;
27039;SDS011;14589;51.578;7.306;2022-08-02T15:27:42;5.53;;;2.25;;
27039;SDS011;14589;51.578;7.306;2022-08-02T15:30:09;6.97;;;2.20;;
27039;SDS011;14589;51.578;7.306;2022-08-02T15:32:35;3.03;;;2.05;;
27039;SDS011;14589;51.578;7.306;2022-08-02T15:35:00;2.28;;;1.80;;
27039;SDS011;14589;51.578;7.306;2022-08-02T15:37:25;2.28;;;1.67;;
27039;SDS011;14589;51.578;7.306;2022-08-02T15:39:51;2.25;;;2.00;;
27039;SDS011;14589;51.578;7.306;2022-08-02T15:42:17;1.73;;;1.63;;
27039;SDS011;14589;51.578;7.306;2022-08-02T15:44:42;1.80;;;1.70;;